sensor_id;sensor_type;location;lat;lon;timestamp;P1;durP1;ratioP1;P2;durP2;ratioP2
25559;SDS011;13450;49.374;8.584;2023-03-01T00:00:41;9.50;;;3.60;;
25559;SDS011;13450;49.374;8.584;2023-03-01T00:03:06;8.90;;;4.10;;
25559;SDS011;13450;49.374;8.584;2023-03-01T00:05:34;10.70;;;4.00;;
25559;SDS011;13450;49.374;8.584;2023-03-01T00:07:59;8.93;;;3.90;;
25559;SDS011;13450;49.374;8.584;2023-03-01T00:10:24;9.75;;;4.07;;
25559;SDS011;13450;49.374;8.584;2023-03-01T00:12:51;15.82;;;4.60;;
25559;SDS011;13450;49.374;8.584;2023-03-01T00:15:16;9.73;;;4.30;;
25559;SDS011;13450;49.374;8.584;2023-03-01T00:17:42;11.70;;;4.45;;
25559;SDS011;13450;49.374;8.584;2023-03-01T00:20:07;10.98;;;4.10;;
25559;SDS011;13450;49.374;8.584;2023-03-01T00:22:35;12.88;;;4.00;;
25559;SDS011;13450;49.374;8.584;2023-03-01T00:25:01;12.93;;;4.60;;
25559;SDS011;13450;49.374;8.584;2023-03-01T00:27:29;12.80;;;4.10;;
25559;SDS011;13450;49.374;8.584;2023-03-01T00:29:54;9.55;;;3.80;;
25559;SDS011;13450;49.374;8.584;2023-03-01T00:32:22;12.35;;;4.15;;
25559;SDS011;13450;49.374;8.584;2023-03-01T00:34:48;13.18;;;4.78;;
25559;SDS011;13450;49.374;8.584;2023-03-01T00:37:22;11.10;;;4.45;;
25559;SDS011;13450;49.374;8.584;2023-03-01T00:39:50;13.23;;;4.53;;
25559;SDS011;13450;49.374;8.584;2023-03-01T00:42:16;11.45;;;4.68;;
25559;SDS011;13450;49.374;8.584;2023-03-01T00:44:44;11.23;;;3.90;;
25559;SDS011;13450;49.374;8.584;2023-03-01T00:47:10;9.40;;;4.05;;
25559;SDS011;13450;49.374;8.584;2023-03-01T00:49:38;11.18;;;4.78;;
25559;SDS011;13450;49.374;8.584;2023-03-01T00:52:04;9.80;;;4.07;;
25559;SDS011;13450;49.374;8.584;2023-03-01T00:54:30;14.70;;;4.32;;
25559;SDS011;13450;49.374;8.584;2023-03-01T00:56:55;12.43;;;4.57;;
25559;SDS011;13450;49.374;8.584;2023-03-01T00:59:21;12.20;;;4.35;;
25559;SDS011;13450;49.374;8.584;2023-03-01T01:01:46;12.55;;;5.10;;
25559;SDS011;13450;49.374;8.584;2023-03-01T01:04:12;11.77;;;4.15;;
25559;SDS011;13450;49.374;8.584;2023-03-01T01:09:08;12.57;;;4.40;;
25559;SDS011;13450;49.374;8.584;2023-03-01T01:11:44;13.85;;;4.53;;
25559;SDS011;13450;49.374;8.584;2023-03-01T01:14:11;12.23;;;4.65;;
25559;SDS011;13450;49.374;8.584;2023-03-01T01:16:36;13.32;;;4.50;;
25559;SDS011;13450;49.374;8.584;2023-03-01T01:19:02;8.43;;;3.75;;
25559;SDS011;13450;49.374;8.584;2023-03-01T01:21:27;11.18;;;4.32;;
25559;SDS011;13450;49.374;8.584;2023-03-01T01:23:54;12.15;;;4.63;;
25559;SDS011;13450;49.374;8.584;2023-03-01T01:26:21;12.38;;;4.68;;
25559;SDS011;13450;49.374;8.584;2023-03-01T01:28:49;10.82;;;4.50;;
25559;SDS011;13450;49.374;8.584;2023-03-01T01:31:15;9.18;;;3.83;;
25559;SDS011;13450;49.374;8.584;2023-03-01T01:33:41;10.23;;;4.25;;
25559;SDS011;13450;49.374;8.584;2023-03-01T01:36:06;11.23;;;4.28;;
25559;SDS011;13450;49.374;8.584;2023-03-01T01:38:33;11.82;;;4.50;;
25559;SDS011;13450;49.374;8.584;2023-03-01T01:40:59;10.13;;;3.92;;
25559;SDS011;13450;49.374;8.584;2023-03-01T01:43:34;11.50;;;4.22;;
25559;SDS011;13450;49.374;8.584;2023-03-01T01:46:35;10.73;;;4.10;;
25559;SDS011;13450;49.374;8.584;2023-03-01T01:49:07;10.63;;;4.28;;
25559;SDS011;13450;49.374;8.584;2023-03-01T01:51:43;13.73;;;4.18;;
25559;SDS011;13450;49.374;8.584;2023-03-01T01:54:17;11.48;;;4.47;;
25559;SDS011;13450;49.374;8.584;2023-03-01T01:56:50;13.07;;;4.38;;
25559;SDS011;13450;49.374;8.584;2023-03-01T01:59:19;10.40;;;4.10;;
25559;SDS011;13450;49.374;8.584;2023-03-01T02:01:51;10.98;;;4.18;;
25559;SDS011;13450;49.374;8.584;2023-03-01T02:04:17;10.95;;;4.25;;
25559;SDS011;13450;49.374;8.584;2023-03-01T02:06:48;11.50;;;4.55;;
25559;SDS011;13450;49.374;8.584;2023-03-01T02:09:20;12.93;;;5.03;;
25559;SDS011;13450;49.374;8.584;2023-03-01T02:11:48;14.30;;;4.85;;
25559;SDS011;13450;49.374;8.584;2023-03-01T02:14:17;11.93;;;4.35;;
25559;SDS011;13450;49.374;8.584;2023-03-01T02:16:45;12.10;;;5.03;;
25559;SDS011;13450;49.374;8.584;2023-03-01T02:19:18;12.43;;;4.30;;
25559;SDS011;13450;49.374;8.584;2023-03-01T02:22:25;11.80;;;4.75;;
25559;SDS011;13450;49.374;8.584;2023-03-01T02:30:23;10.95;;;4.32;;
25559;SDS011;13450;49.374;8.584;2023-03-01T02:32:50;11.55;;;4.63;;
25559;SDS011;13450;49.374;8.584;2023-03-01T02:37:45;13.27;;;4.38;;
25559;SDS011;13450;49.374;8.584;2023-03-01T02:40:15;10.35;;;4.03;;
25559;SDS011;13450;49.374;8.584;2023-03-01T02:42:47;9.65;;;3.72;;
25559;SDS011;13450;49.374;8.584;2023-03-01T02:45:17;9.73;;;4.10;;
25559;SDS011;13450;49.374;8.584;2023-03-01T02:47:46;10.20;;;3.80;;
25559;SDS011;13450;49.374;8.584;2023-03-01T02:53:15;14.50;;;4.68;;
25559;SDS011;13450;49.374;8.584;2023-03-01T02:55:50;12.32;;;4.72;;
25559;SDS011;13450;49.374;8.584;2023-03-01T02:58:15;13.32;;;5.03;;
25559;SDS011;13450;49.374;8.584;2023-03-01T03:00:42;12.32;;;4.60;;
25559;SDS011;13450;49.374;8.584;2023-03-01T03:03:15;11.18;;;4.00;;
25559;SDS011;13450;49.374;8.584;2023-03-01T03:05:42;10.30;;;3.97;;
25559;SDS011;13450;49.374;8.584;2023-03-01T03:10:38;13.38;;;4.80;;
25559;SDS011;13450;49.374;8.584;2023-03-01T03:13:14;12.63;;;4.22;;
25559;SDS011;13450;49.374;8.584;2023-03-01T03:15:40;13.73;;;4.13;;
25559;SDS011;13450;49.374;8.584;2023-03-01T03:18:08;11.77;;;4.72;;
25559;SDS011;13450;49.374;8.584;2023-03-01T03:20:36;13.25;;;4.57;;
25559;SDS011;13450;49.374;8.584;2023-03-01T03:23:04;12.70;;;4.57;;
25559;SDS011;13450;49.374;8.584;2023-03-01T03:25:29;13.57;;;4.47;;
25559;SDS011;13450;49.374;8.584;2023-03-01T03:27:57;12.77;;;5.07;;
25559;SDS011;13450;49.374;8.584;2023-03-01T03:30:24;13.10;;;4.80;;
25559;SDS011;13450;49.374;8.584;2023-03-01T03:32:51;14.90;;;5.18;;
25559;SDS011;13450;49.374;8.584;2023-03-01T03:35:29;15.25;;;5.72;;
25559;SDS011;13450;49.374;8.584;2023-03-01T03:37:57;13.57;;;5.47;;
25559;SDS011;13450;49.374;8.584;2023-03-01T03:40:40;16.83;;;6.75;;
25559;SDS011;13450;49.374;8.584;2023-03-01T03:43:08;17.80;;;6.15;;
25559;SDS011;13450;49.374;8.584;2023-03-01T03:45:38;14.75;;;5.25;;
25559;SDS011;13450;49.374;8.584;2023-03-01T03:48:04;12.18;;;4.78;;
25559;SDS011;13450;49.374;8.584;2023-03-01T03:50:31;9.30;;;3.85;;
25559;SDS011;13450;49.374;8.584;2023-03-01T03:52:57;14.30;;;4.40;;
25559;SDS011;13450;49.374;8.584;2023-03-01T03:55:28;13.20;;;4.63;;
25559;SDS011;13450;49.374;8.584;2023-03-01T03:57:56;13.93;;;4.50;;
25559;SDS011;13450;49.374;8.584;2023-03-01T04:00:31;10.85;;;4.38;;
25559;SDS011;13450;49.374;8.584;2023-03-01T04:02:57;12.35;;;4.45;;
25559;SDS011;13450;49.374;8.584;2023-03-01T04:05:22;10.35;;;4.10;;
25559;SDS011;13450;49.374;8.584;2023-03-01T04:07:48;12.10;;;4.35;;
25559;SDS011;13450;49.374;8.584;2023-03-01T04:10:28;11.05;;;4.38;;
25559;SDS011;13450;49.374;8.584;2023-03-01T04:12:58;12.02;;;4.47;;
25559;SDS011;13450;49.374;8.584;2023-03-01T04:15:24;10.90;;;4.47;;
25559;SDS011;13450;49.374;8.584;2023-03-01T04:17:51;13.25;;;4.80;;
25559;SDS011;13450;49.374;8.584;2023-03-01T04:20:19;12.52;;;4.68;;
25559;SDS011;13450;49.374;8.584;2023-03-01T04:22:51;14.70;;;4.88;;
25559;SDS011;13450;49.374;8.584;2023-03-01T04:25:22;9.80;;;4.20;;
25559;SDS011;13450;49.374;8.584;2023-03-01T04:27:49;12.52;;;4.38;;
25559;SDS011;13450;49.374;8.584;2023-03-01T04:30:15;14.90;;;5.00;;
25559;SDS011;13450;49.374;8.584;2023-03-01T04:32:43;15.55;;;5.20;;
25559;SDS011;13450;49.374;8.584;2023-03-01T04:35:09;10.88;;;5.13;;
25559;SDS011;13450;49.374;8.584;2023-03-01T04:37:34;11.05;;;4.15;;
25559;SDS011;13450;49.374;8.584;2023-03-01T04:40:00;12.82;;;4.95;;
25559;SDS011;13450;49.374;8.584;2023-03-01T04:42:37;16.13;;;5.40;;
25559;SDS011;13450;49.374;8.584;2023-03-01T04:45:02;15.05;;;4.93;;
25559;SDS011;13450;49.374;8.584;2023-03-01T04:47:28;12.35;;;4.75;;
25559;SDS011;13450;49.374;8.584;2023-03-01T04:49:53;15.15;;;5.43;;
25559;SDS011;13450;49.374;8.584;2023-03-01T04:52:21;14.20;;;5.50;;
25559;SDS011;13450;49.374;8.584;2023-03-01T04:54:46;13.55;;;4.28;;
25559;SDS011;13450;49.374;8.584;2023-03-01T04:57:12;15.68;;;5.95;;
25559;SDS011;13450;49.374;8.584;2023-03-01T04:59:37;12.07;;;5.00;;
25559;SDS011;13450;49.374;8.584;2023-03-01T05:02:04;16.00;;;5.25;;
25559;SDS011;13450;49.374;8.584;2023-03-01T05:04:30;12.90;;;5.03;;
25559;SDS011;13450;49.374;8.584;2023-03-01T05:06:55;14.32;;;4.80;;
25559;SDS011;13450;49.374;8.584;2023-03-01T05:09:23;20.85;;;5.95;;
25559;SDS011;13450;49.374;8.584;2023-03-01T05:11:48;13.55;;;5.22;;
25559;SDS011;13450;49.374;8.584;2023-03-01T05:14:15;12.40;;;4.15;;
25559;SDS011;13450;49.374;8.584;2023-03-01T05:16:40;11.52;;;3.92;;
25559;SDS011;13450;49.374;8.584;2023-03-01T05:19:05;12.23;;;4.38;;
25559;SDS011;13450;49.374;8.584;2023-03-01T05:21:39;12.88;;;4.97;;
25559;SDS011;13450;49.374;8.584;2023-03-01T05:24:23;16.65;;;5.57;;
25559;SDS011;13450;49.374;8.584;2023-03-01T05:26:52;16.58;;;6.10;;
25559;SDS011;13450;49.374;8.584;2023-03-01T05:29:18;14.35;;;5.53;;
25559;SDS011;13450;49.374;8.584;2023-03-01T05:34:25;16.40;;;5.47;;
25559;SDS011;13450;49.374;8.584;2023-03-01T05:36:55;16.50;;;5.13;;
25559;SDS011;13450;49.374;8.584;2023-03-01T05:39:21;15.77;;;5.45;;
25559;SDS011;13450;49.374;8.584;2023-03-01T05:41:48;18.02;;;5.97;;
25559;SDS011;13450;49.374;8.584;2023-03-01T05:44:17;14.45;;;5.15;;
25559;SDS011;13450;49.374;8.584;2023-03-01T05:46:43;16.25;;;5.78;;
25559;SDS011;13450;49.374;8.584;2023-03-01T05:49:11;15.52;;;5.38;;
25559;SDS011;13450;49.374;8.584;2023-03-01T05:51:38;18.30;;;5.47;;
25559;SDS011;13450;49.374;8.584;2023-03-01T05:54:04;18.60;;;5.93;;
25559;SDS011;13450;49.374;8.584;2023-03-01T05:56:31;14.43;;;5.35;;
25559;SDS011;13450;49.374;8.584;2023-03-01T05:58:59;18.23;;;5.57;;
25559;SDS011;13450;49.374;8.584;2023-03-01T06:01:25;17.55;;;5.32;;
25559;SDS011;13450;49.374;8.584;2023-03-01T06:03:54;15.25;;;5.13;;
25559;SDS011;13450;49.374;8.584;2023-03-01T06:06:20;17.40;;;5.57;;
25559;SDS011;13450;49.374;8.584;2023-03-01T06:08:46;16.70;;;5.88;;
25559;SDS011;13450;49.374;8.584;2023-03-01T06:11:16;15.77;;;5.50;;
25559;SDS011;13450;49.374;8.584;2023-03-01T06:13:42;16.42;;;4.57;;
25559;SDS011;13450;49.374;8.584;2023-03-01T06:16:08;16.23;;;5.50;;
25559;SDS011;13450;49.374;8.584;2023-03-01T06:18:34;16.85;;;7.40;;
25559;SDS011;13450;49.374;8.584;2023-03-01T06:20:59;20.83;;;5.55;;
25559;SDS011;13450;49.374;8.584;2023-03-01T06:23:25;17.73;;;6.35;;
25559;SDS011;13450;49.374;8.584;2023-03-01T06:25:51;16.48;;;5.70;;
25559;SDS011;13450;49.374;8.584;2023-03-01T06:28:17;20.10;;;7.50;;
25559;SDS011;13450;49.374;8.584;2023-03-01T06:30:42;20.77;;;7.15;;
25559;SDS011;13450;49.374;8.584;2023-03-01T06:33:07;17.80;;;6.35;;
25559;SDS011;13450;49.374;8.584;2023-03-01T06:35:33;15.48;;;5.40;;
25559;SDS011;13450;49.374;8.584;2023-03-01T06:38:00;15.65;;;6.00;;
25559;SDS011;13450;49.374;8.584;2023-03-01T06:40:26;19.70;;;6.10;;
25559;SDS011;13450;49.374;8.584;2023-03-01T06:42:52;16.48;;;6.40;;
25559;SDS011;13450;49.374;8.584;2023-03-01T06:45:18;18.95;;;6.40;;
25559;SDS011;13450;49.374;8.584;2023-03-01T06:47:45;18.75;;;6.70;;
25559;SDS011;13450;49.374;8.584;2023-03-01T06:50:11;16.08;;;5.88;;
25559;SDS011;13450;49.374;8.584;2023-03-01T06:52:36;19.88;;;6.50;;
25559;SDS011;13450;49.374;8.584;2023-03-01T06:55:04;16.83;;;6.30;;
25559;SDS011;13450;49.374;8.584;2023-03-01T06:57:35;15.43;;;5.32;;
25559;SDS011;13450;49.374;8.584;2023-03-01T07:00:03;21.30;;;6.65;;
25559;SDS011;13450;49.374;8.584;2023-03-01T07:02:31;15.52;;;5.82;;
25559;SDS011;13450;49.374;8.584;2023-03-01T07:04:58;20.55;;;6.47;;
25559;SDS011;13450;49.374;8.584;2023-03-01T07:07:24;15.30;;;5.20;;
25559;SDS011;13450;49.374;8.584;2023-03-01T07:09:49;15.43;;;5.85;;
25559;SDS011;13450;49.374;8.584;2023-03-01T07:12:15;17.88;;;6.68;;
25559;SDS011;13450;49.374;8.584;2023-03-01T07:14:40;16.23;;;5.85;;
25559;SDS011;13450;49.374;8.584;2023-03-01T07:17:06;14.65;;;5.53;;
25559;SDS011;13450;49.374;8.584;2023-03-01T07:19:34;15.15;;;6.13;;
25559;SDS011;13450;49.374;8.584;2023-03-01T07:21:59;13.95;;;5.50;;
25559;SDS011;13450;49.374;8.584;2023-03-01T07:24:24;17.33;;;5.97;;
25559;SDS011;13450;49.374;8.584;2023-03-01T07:26:52;20.27;;;6.22;;
25559;SDS011;13450;49.374;8.584;2023-03-01T07:29:20;14.07;;;5.63;;
25559;SDS011;13450;49.374;8.584;2023-03-01T07:31:45;14.95;;;5.53;;
25559;SDS011;13450;49.374;8.584;2023-03-01T07:34:12;12.52;;;4.85;;
25559;SDS011;13450;49.374;8.584;2023-03-01T07:36:38;18.50;;;6.50;;
25559;SDS011;13450;49.374;8.584;2023-03-01T07:39:04;17.27;;;6.13;;
25559;SDS011;13450;49.374;8.584;2023-03-01T07:41:32;16.33;;;5.68;;
25559;SDS011;13450;49.374;8.584;2023-03-01T07:43:57;18.70;;;5.47;;
25559;SDS011;13450;49.374;8.584;2023-03-01T07:46:22;16.75;;;6.38;;
25559;SDS011;13450;49.374;8.584;2023-03-01T07:48:50;19.58;;;6.13;;
25559;SDS011;13450;49.374;8.584;2023-03-01T07:51:15;15.32;;;5.78;;
25559;SDS011;13450;49.374;8.584;2023-03-01T07:53:41;14.25;;;4.93;;
25559;SDS011;13450;49.374;8.584;2023-03-01T07:56:08;17.27;;;6.25;;
25559;SDS011;13450;49.374;8.584;2023-03-01T07:58:38;14.30;;;6.15;;
25559;SDS011;13450;49.374;8.584;2023-03-01T08:01:09;16.90;;;6.28;;
25559;SDS011;13450;49.374;8.584;2023-03-01T08:03:38;17.25;;;6.18;;
25559;SDS011;13450;49.374;8.584;2023-03-01T08:06:05;14.48;;;5.82;;
25559;SDS011;13450;49.374;8.584;2023-03-01T08:08:33;14.20;;;5.70;;
25559;SDS011;13450;49.374;8.584;2023-03-01T08:11:02;14.93;;;5.65;;
25559;SDS011;13450;49.374;8.584;2023-03-01T08:13:32;15.27;;;6.00;;
25559;SDS011;13450;49.374;8.584;2023-03-01T08:16:03;16.23;;;6.13;;
25559;SDS011;13450;49.374;8.584;2023-03-01T08:18:32;17.33;;;6.07;;
25559;SDS011;13450;49.374;8.584;2023-03-01T08:21:04;15.70;;;5.97;;
25559;SDS011;13450;49.374;8.584;2023-03-01T08:23:30;18.55;;;6.45;;
25559;SDS011;13450;49.374;8.584;2023-03-01T08:26:02;17.55;;;6.03;;
25559;SDS011;13450;49.374;8.584;2023-03-01T08:28:38;17.23;;;6.55;;
25559;SDS011;13450;49.374;8.584;2023-03-01T08:33:51;14.95;;;6.47;;
25559;SDS011;13450;49.374;8.584;2023-03-01T08:36:22;18.60;;;6.43;;
25559;SDS011;13450;49.374;8.584;2023-03-01T08:38:59;17.38;;;6.38;;
25559;SDS011;13450;49.374;8.584;2023-03-01T08:41:24;19.67;;;7.32;;
25559;SDS011;13450;49.374;8.584;2023-03-01T08:43:51;21.83;;;6.85;;
25559;SDS011;13450;49.374;8.584;2023-03-01T08:46:17;16.25;;;5.85;;
25559;SDS011;13450;49.374;8.584;2023-03-01T08:48:43;15.65;;;6.03;;
25559;SDS011;13450;49.374;8.584;2023-03-01T08:53:34;17.60;;;6.30;;
25559;SDS011;13450;49.374;8.584;2023-03-01T08:55:59;15.45;;;6.38;;
25559;SDS011;13450;49.374;8.584;2023-03-01T08:58:27;17.73;;;7.00;;
25559;SDS011;13450;49.374;8.584;2023-03-01T09:00:52;18.40;;;6.45;;
25559;SDS011;13450;49.374;8.584;2023-03-01T09:03:18;17.58;;;6.70;;
25559;SDS011;13450;49.374;8.584;2023-03-01T09:05:43;12.10;;;5.43;;
25559;SDS011;13450;49.374;8.584;2023-03-01T09:08:10;16.52;;;6.47;;
25559;SDS011;13450;49.374;8.584;2023-03-01T09:10:38;15.73;;;6.57;;
25559;SDS011;13450;49.374;8.584;2023-03-01T09:13:04;16.52;;;6.68;;
25559;SDS011;13450;49.374;8.584;2023-03-01T09:15:29;17.35;;;5.90;;
25559;SDS011;13450;49.374;8.584;2023-03-01T09:17:55;16.52;;;6.35;;
25559;SDS011;13450;49.374;8.584;2023-03-01T09:20:20;15.60;;;6.30;;
25559;SDS011;13450;49.374;8.584;2023-03-01T09:22:45;15.20;;;6.25;;
25559;SDS011;13450;49.374;8.584;2023-03-01T09:25:11;17.88;;;6.63;;
25559;SDS011;13450;49.374;8.584;2023-03-01T09:27:38;17.00;;;6.88;;
25559;SDS011;13450;49.374;8.584;2023-03-01T09:30:04;16.15;;;6.72;;
25559;SDS011;13450;49.374;8.584;2023-03-01T09:32:30;17.83;;;6.47;;
25559;SDS011;13450;49.374;8.584;2023-03-01T09:34:56;16.58;;;7.18;;
25559;SDS011;13450;49.374;8.584;2023-03-01T09:37:34;17.95;;;6.63;;
25559;SDS011;13450;49.374;8.584;2023-03-01T09:40:00;20.13;;;7.88;;
25559;SDS011;13450;49.374;8.584;2023-03-01T09:42:26;17.83;;;7.10;;
25559;SDS011;13450;49.374;8.584;2023-03-01T09:45:06;15.27;;;6.38;;
25559;SDS011;13450;49.374;8.584;2023-03-01T09:47:45;16.65;;;6.50;;
25559;SDS011;13450;49.374;8.584;2023-03-01T09:50:14;15.93;;;6.43;;
25559;SDS011;13450;49.374;8.584;2023-03-01T09:53:04;18.35;;;7.15;;
25559;SDS011;13450;49.374;8.584;2023-03-01T10:04:03;17.42;;;6.97;;
25559;SDS011;13450;49.374;8.584;2023-03-01T10:06:38;15.93;;;6.65;;
25559;SDS011;13450;49.374;8.584;2023-03-01T10:09:13;18.02;;;6.47;;
25559;SDS011;13450;49.374;8.584;2023-03-01T10:11:42;17.80;;;6.75;;
25559;SDS011;13450;49.374;8.584;2023-03-01T10:20:48;18.25;;;7.63;;
25559;SDS011;13450;49.374;8.584;2023-03-01T10:23:18;17.30;;;6.70;;
25559;SDS011;13450;49.374;8.584;2023-03-01T10:28:42;17.08;;;7.05;;
25559;SDS011;13450;49.374;8.584;2023-03-01T10:31:24;17.35;;;7.80;;
25559;SDS011;13450;49.374;8.584;2023-03-01T10:33:55;14.25;;;6.10;;
25559;SDS011;13450;49.374;8.584;2023-03-01T10:36:22;17.15;;;6.78;;
25559;SDS011;13450;49.374;8.584;2023-03-01T10:38:50;17.38;;;6.75;;
25559;SDS011;13450;49.374;8.584;2023-03-01T10:41:19;14.45;;;5.95;;
25559;SDS011;13450;49.374;8.584;2023-03-01T10:43:49;18.35;;;7.22;;
25559;SDS011;13450;49.374;8.584;2023-03-01T10:46:23;17.00;;;6.75;;
25559;SDS011;13450;49.374;8.584;2023-03-01T10:51:33;17.33;;;7.40;;
25559;SDS011;13450;49.374;8.584;2023-03-01T10:53:58;17.02;;;7.15;;
25559;SDS011;13450;49.374;8.584;2023-03-01T10:56:24;16.75;;;7.18;;
25559;SDS011;13450;49.374;8.584;2023-03-01T10:59:10;13.18;;;6.70;;
25559;SDS011;13450;49.374;8.584;2023-03-01T11:02:00;17.75;;;7.25;;
25559;SDS011;13450;49.374;8.584;2023-03-01T11:04:47;14.65;;;6.93;;
25559;SDS011;13450;49.374;8.584;2023-03-01T11:16:09;13.55;;;7.07;;
25559;SDS011;13450;49.374;8.584;2023-03-01T11:18:37;12.82;;;6.82;;
25559;SDS011;13450;49.374;8.584;2023-03-01T11:21:02;11.23;;;5.65;;
25559;SDS011;13450;49.374;8.584;2023-03-01T11:23:29;12.50;;;7.18;;
25559;SDS011;13450;49.374;8.584;2023-03-01T11:25:58;12.02;;;7.07;;
25559;SDS011;13450;49.374;8.584;2023-03-01T11:28:28;12.15;;;6.30;;
25559;SDS011;13450;49.374;8.584;2023-03-01T11:33:39;11.55;;;5.93;;
25559;SDS011;13450;49.374;8.584;2023-03-01T11:36:16;12.88;;;7.22;;
25559;SDS011;13450;49.374;8.584;2023-03-01T11:38:42;12.73;;;7.28;;
25559;SDS011;13450;49.374;8.584;2023-03-01T11:54:25;12.23;;;7.32;;
25559;SDS011;13450;49.374;8.584;2023-03-01T12:10:57;11.25;;;6.53;;
25559;SDS011;13450;49.374;8.584;2023-03-01T12:13:50;14.77;;;7.30;;
25559;SDS011;13450;49.374;8.584;2023-03-01T12:19:26;10.85;;;6.88;;
25559;SDS011;13450;49.374;8.584;2023-03-01T12:22:04;13.05;;;6.75;;
25559;SDS011;13450;49.374;8.584;2023-03-01T12:24:38;12.45;;;7.43;;
25559;SDS011;13450;49.374;8.584;2023-03-01T12:30:25;11.85;;;6.82;;
25559;SDS011;13450;49.374;8.584;2023-03-01T12:47:26;10.82;;;6.15;;
25559;SDS011;13450;49.374;8.584;2023-03-01T12:50:24;8.70;;;5.63;;
25559;SDS011;13450;49.374;8.584;2023-03-01T12:52:58;10.88;;;5.63;;
25559;SDS011;13450;49.374;8.584;2023-03-01T12:58:05;12.32;;;7.00;;
25559;SDS011;13450;49.374;8.584;2023-03-01T13:03:52;10.55;;;6.25;;
25559;SDS011;13450;49.374;8.584;2023-03-01T13:06:41;9.45;;;5.65;;
25559;SDS011;13450;49.374;8.584;2023-03-01T13:15:02;11.85;;;7.30;;
25559;SDS011;13450;49.374;8.584;2023-03-01T13:17:29;11.55;;;6.25;;
25559;SDS011;13450;49.374;8.584;2023-03-01T13:19:57;11.27;;;6.35;;
25559;SDS011;13450;49.374;8.584;2023-03-01T13:22:30;10.75;;;6.65;;
25559;SDS011;13450;49.374;8.584;2023-03-01T13:25:02;11.25;;;6.15;;
25559;SDS011;13450;49.374;8.584;2023-03-01T13:27:38;9.80;;;5.82;;
25559;SDS011;13450;49.374;8.584;2023-03-01T13:30:11;10.95;;;5.93;;
25559;SDS011;13450;49.374;8.584;2023-03-01T13:35:57;11.45;;;5.93;;
25559;SDS011;13450;49.374;8.584;2023-03-01T13:38:44;10.85;;;5.00;;
25559;SDS011;13450;49.374;8.584;2023-03-01T13:44:13;11.45;;;6.32;;
25559;SDS011;13450;49.374;8.584;2023-03-01T13:46:43;9.88;;;5.80;;
25559;SDS011;13450;49.374;8.584;2023-03-01T13:49:11;14.10;;;6.40;;
25559;SDS011;13450;49.374;8.584;2023-03-01T13:51:53;10.13;;;5.13;;
25559;SDS011;13450;49.374;8.584;2023-03-01T13:57:12;9.50;;;4.82;;
25559;SDS011;13450;49.374;8.584;2023-03-01T13:59:52;9.20;;;5.28;;
25559;SDS011;13450;49.374;8.584;2023-03-01T14:02:17;10.57;;;5.22;;
25559;SDS011;13450;49.374;8.584;2023-03-01T14:04:42;7.55;;;4.25;;
25559;SDS011;13450;49.374;8.584;2023-03-01T14:10:01;9.98;;;5.25;;
25559;SDS011;13450;49.374;8.584;2023-03-01T14:12:34;9.95;;;5.20;;
25559;SDS011;13450;49.374;8.584;2023-03-01T14:20:24;8.80;;;5.15;;
25559;SDS011;13450;49.374;8.584;2023-03-01T14:22:52;10.02;;;4.93;;
25559;SDS011;13450;49.374;8.584;2023-03-01T14:30:31;8.80;;;5.18;;
25559;SDS011;13450;49.374;8.584;2023-03-01T14:32:59;10.20;;;5.20;;
25559;SDS011;13450;49.374;8.584;2023-03-01T14:35:27;9.90;;;5.00;;
25559;SDS011;13450;49.374;8.584;2023-03-01T14:37:54;10.98;;;5.07;;
25559;SDS011;13450;49.374;8.584;2023-03-01T14:40:24;10.40;;;4.90;;
25559;SDS011;13450;49.374;8.584;2023-03-01T14:42:58;9.43;;;5.27;;
25559;SDS011;13450;49.374;8.584;2023-03-01T14:45:28;10.95;;;5.30;;
25559;SDS011;13450;49.374;8.584;2023-03-01T14:47:58;9.80;;;4.65;;
25559;SDS011;13450;49.374;8.584;2023-03-01T14:50:32;9.40;;;5.13;;
25559;SDS011;13450;49.374;8.584;2023-03-01T14:53:04;10.75;;;4.50;;
25559;SDS011;13450;49.374;8.584;2023-03-01T14:55:33;9.77;;;4.93;;
25559;SDS011;13450;49.374;8.584;2023-03-01T15:00:31;11.52;;;5.45;;
25559;SDS011;13450;49.374;8.584;2023-03-01T15:03:00;9.05;;;4.53;;
25559;SDS011;13450;49.374;8.584;2023-03-01T15:05:34;9.57;;;4.85;;
25559;SDS011;13450;49.374;8.584;2023-03-01T15:08:01;11.10;;;4.85;;
25559;SDS011;13450;49.374;8.584;2023-03-01T15:10:32;9.77;;;4.55;;
25559;SDS011;13450;49.374;8.584;2023-03-01T15:13:11;12.30;;;5.47;;
25559;SDS011;13450;49.374;8.584;2023-03-01T15:15:40;10.48;;;4.82;;
25559;SDS011;13450;49.374;8.584;2023-03-01T15:18:15;10.35;;;5.05;;
25559;SDS011;13450;49.374;8.584;2023-03-01T15:20:46;10.80;;;4.60;;
25559;SDS011;13450;49.374;8.584;2023-03-01T15:23:19;14.13;;;5.38;;
25559;SDS011;13450;49.374;8.584;2023-03-01T15:25:50;9.82;;;4.95;;
25559;SDS011;13450;49.374;8.584;2023-03-01T15:28:21;10.32;;;5.45;;
25559;SDS011;13450;49.374;8.584;2023-03-01T15:30:52;9.88;;;4.45;;
25559;SDS011;13450;49.374;8.584;2023-03-01T15:35:52;11.70;;;4.97;;
25559;SDS011;13450;49.374;8.584;2023-03-01T15:38:55;12.68;;;5.45;;
25559;SDS011;13450;49.374;8.584;2023-03-01T15:41:25;11.35;;;4.60;;
25559;SDS011;13450;49.374;8.584;2023-03-01T15:43:56;10.70;;;4.80;;
25559;SDS011;13450;49.374;8.584;2023-03-01T15:46:27;11.20;;;4.60;;
25559;SDS011;13450;49.374;8.584;2023-03-01T15:48:58;10.00;;;4.47;;
25559;SDS011;13450;49.374;8.584;2023-03-01T15:51:28;11.30;;;5.00;;
25559;SDS011;13450;49.374;8.584;2023-03-01T15:53:56;13.63;;;4.72;;
25559;SDS011;13450;49.374;8.584;2023-03-01T15:56:26;12.25;;;4.28;;
25559;SDS011;13450;49.374;8.584;2023-03-01T15:58:57;10.55;;;5.18;;
25559;SDS011;13450;49.374;8.584;2023-03-01T16:01:24;11.02;;;4.70;;
25559;SDS011;13450;49.374;8.584;2023-03-01T16:03:49;12.40;;;4.65;;
25559;SDS011;13450;49.374;8.584;2023-03-01T16:06:18;10.30;;;4.90;;
25559;SDS011;13450;49.374;8.584;2023-03-01T16:08:44;12.35;;;4.60;;
25559;SDS011;13450;49.374;8.584;2023-03-01T16:11:11;10.32;;;4.65;;
25559;SDS011;13450;49.374;8.584;2023-03-01T16:13:46;10.68;;;5.00;;
25559;SDS011;13450;49.374;8.584;2023-03-01T16:16:15;10.45;;;4.80;;
25559;SDS011;13450;49.374;8.584;2023-03-01T16:18:45;10.82;;;5.00;;
25559;SDS011;13450;49.374;8.584;2023-03-01T16:21:12;9.05;;;4.53;;
25559;SDS011;13450;49.374;8.584;2023-03-01T16:23:40;10.40;;;4.57;;
25559;SDS011;13450;49.374;8.584;2023-03-01T16:26:06;12.35;;;5.10;;
25559;SDS011;13450;49.374;8.584;2023-03-01T16:28:31;10.52;;;4.90;;
25559;SDS011;13450;49.374;8.584;2023-03-01T16:30:57;10.48;;;4.43;;
25559;SDS011;13450;49.374;8.584;2023-03-01T16:33:26;13.63;;;4.80;;
25559;SDS011;13450;49.374;8.584;2023-03-01T16:35:52;9.95;;;4.80;;
25559;SDS011;13450;49.374;8.584;2023-03-01T16:38:18;14.30;;;4.80;;
25559;SDS011;13450;49.374;8.584;2023-03-01T16:40:47;15.63;;;6.57;;
25559;SDS011;13450;49.374;8.584;2023-03-01T16:43:16;9.80;;;4.95;;
25559;SDS011;13450;49.374;8.584;2023-03-01T16:45:44;10.20;;;4.53;;
25559;SDS011;13450;49.374;8.584;2023-03-01T16:48:11;12.75;;;5.78;;
25559;SDS011;13450;49.374;8.584;2023-03-01T16:50:37;13.43;;;5.80;;
25559;SDS011;13450;49.374;8.584;2023-03-01T16:53:04;11.13;;;5.20;;
25559;SDS011;13450;49.374;8.584;2023-03-01T16:55:30;11.82;;;5.55;;
25559;SDS011;13450;49.374;8.584;2023-03-01T16:57:58;10.68;;;5.03;;
25559;SDS011;13450;49.374;8.584;2023-03-01T17:00:23;11.48;;;5.20;;
25559;SDS011;13450;49.374;8.584;2023-03-01T17:02:49;13.55;;;6.25;;
25559;SDS011;13450;49.374;8.584;2023-03-01T17:05:14;10.88;;;4.90;;
25559;SDS011;13450;49.374;8.584;2023-03-01T17:07:39;12.90;;;6.45;;
25559;SDS011;13450;49.374;8.584;2023-03-01T17:10:06;17.88;;;9.70;;